Penn, North Dakota
Current Conditions -  °F | °C
As of 9:55 AM on Friday 31 Oct 2014 (Local Time) from KDVL Reporting Station
Clear Clear  
Wind Chill: 16°   Ceiling: Unl
Heat Index: 27°   Visibility: 10mi
Dew Point: 16°   Wind: 12mph
Humidity: 64%   Direction: 160°SSE
Pressure: 30.52"   Gusts: NA
Location:  48.22°N, 99.09°W
Report Text: KDVL 311455Z AUTO 16010KT 10SM CLR M03/M09 A3052 RMK AO1 57010
Loading
Personal Weather Stations






























Interactive Weather Map
Tropical Storm Tracking
New forecast layout! Learn more

10-Day Weather Forecast

Advertisements
Track Severe Weather on mobile